Карточка аэропорта UAKK

Внимание!
Информация на этой странице в стадии наполнения.
Если вы не увидели какой-то информации, или заметили неточность - пожалуйста сообщите нам!
Спасибо!
Команда RU-STAFF
Название аэропортаКараганда
Название аэропорта (англ.)Karaganda
Превышение1768 ft. (538.9 m.)
Координаты49°40.302', 73°20.118'
Высота перехода10000
Эшелон переходаby ATC
Коды ответчика0630-0637, 7220-7227
Зона ОрВДАстана РПИ (UACN)
Данные METARUAKK 191730Z 06004MPS CAVOK 11/09 Q1021 NOSIG RMK QFE718/0958
Проноз погоды (TAF)UAKK 191101Z 1912/2012 01005MPS 9999 SCT040 BKN100 TX23/2009Z TN06/2001Z TEMPO 1912/1915 05008MPS BECMG 1915/1917 07005MPS TEMPO 1915/2003 3100 BR SCT011 BECMG 2003/2005 06007G12MPS
NOTAMshow/hide NOTAM
AWOS   TABLE

Информация о ВПП

ВПП Длина ВПП (м.) Покрытие Курс ВПП Частота ILS
053601Железобетон50109.9
233601Железобетон230111.7

Диспетчерские позиции




Спутниковое изображение